sensor_id;sensor_type;location;lat;lon;timestamp;P1;durP1;ratioP1;P2;durP2;ratioP2
2998;SDS011;1509;51.964;7.628;2023-04-12T00:00:30;5.43;;;2.83;;
2998;SDS011;1509;51.964;7.628;2023-04-12T00:02:55;7.50;;;2.77;;
2998;SDS011;1509;51.964;7.628;2023-04-12T00:05:23;5.43;;;2.70;;
2998;SDS011;1509;51.964;7.628;2023-04-12T00:07:51;5.90;;;2.70;;
2998;SDS011;1509;51.964;7.628;2023-04-12T00:10:20;9.80;;;2.67;;
2998;SDS011;1509;51.964;7.628;2023-04-12T00:12:49;4.23;;;2.90;;
2998;SDS011;1509;51.964;7.628;2023-04-12T00:15:14;7.97;;;2.90;;
2998;SDS011;1509;51.964;7.628;2023-04-12T00:17:40;7.57;;;2.70;;
2998;SDS011;1509;51.964;7.628;2023-04-12T00:20:06;7.17;;;2.70;;
2998;SDS011;1509;51.964;7.628;2023-04-12T00:22:37;9.43;;;2.80;;
2998;SDS011;1509;51.964;7.628;2023-04-12T00:25:03;8.47;;;2.50;;
2998;SDS011;1509;51.964;7.628;2023-04-12T00:27:29;4.73;;;2.80;;
2998;SDS011;1509;51.964;7.628;2023-04-12T00:29:54;6.33;;;2.87;;
2998;SDS011;1509;51.964;7.628;2023-04-12T00:32:20;4.53;;;2.57;;
2998;SDS011;1509;51.964;7.628;2023-04-12T00:34:46;6.80;;;3.47;;
2998;SDS011;1509;51.964;7.628;2023-04-12T00:37:11;4.47;;;2.63;;
2998;SDS011;1509;51.964;7.628;2023-04-12T00:39:40;11.97;;;2.50;;
2998;SDS011;1509;51.964;7.628;2023-04-12T00:42:06;7.10;;;2.97;;
2998;SDS011;1509;51.964;7.628;2023-04-12T00:44:31;6.13;;;2.37;;
2998;SDS011;1509;51.964;7.628;2023-04-12T00:47:00;5.17;;;3.40;;
2998;SDS011;1509;51.964;7.628;2023-04-12T00:49:29;3.67;;;2.60;;
2998;SDS011;1509;51.964;7.628;2023-04-12T00:51:59;6.07;;;3.83;;
2998;SDS011;1509;51.964;7.628;2023-04-12T00:54:29;5.60;;;2.37;;
2998;SDS011;1509;51.964;7.628;2023-04-12T00:56:56;6.17;;;2.50;;
2998;SDS011;1509;51.964;7.628;2023-04-12T00:59:22;6.33;;;2.87;;
2998;SDS011;1509;51.964;7.628;2023-04-12T01:01:48;6.30;;;2.20;;
2998;SDS011;1509;51.964;7.628;2023-04-12T01:04:14;10.23;;;2.87;;
2998;SDS011;1509;51.964;7.628;2023-04-12T01:14:47;3.80;;;2.27;;
2998;SDS011;1509;51.964;7.628;2023-04-12T01:17:28;3.73;;;1.90;;
2998;SDS011;1509;51.964;7.628;2023-04-12T01:20:05;5.83;;;3.10;;
2998;SDS011;1509;51.964;7.628;2023-04-12T01:25:13;5.13;;;3.03;;
2998;SDS011;1509;51.964;7.628;2023-04-12T01:27:58;5.13;;;2.57;;
2998;SDS011;1509;51.964;7.628;2023-04-12T01:30:27;4.47;;;2.10;;
2998;SDS011;1509;51.964;7.628;2023-04-12T01:32:53;6.23;;;1.97;;
2998;SDS011;1509;51.964;7.628;2023-04-12T01:35:22;4.70;;;2.00;;
2998;SDS011;1509;51.964;7.628;2023-04-12T01:37:51;6.47;;;2.50;;
2998;SDS011;1509;51.964;7.628;2023-04-12T01:40:18;5.00;;;1.97;;
2998;SDS011;1509;51.964;7.628;2023-04-12T01:42:44;6.97;;;2.53;;
2998;SDS011;1509;51.964;7.628;2023-04-12T01:45:10;6.37;;;2.40;;
2998;SDS011;1509;51.964;7.628;2023-04-12T01:47:35;9.37;;;2.50;;
2998;SDS011;1509;51.964;7.628;2023-04-12T01:52:29;3.30;;;1.90;;
2998;SDS011;1509;51.964;7.628;2023-04-12T01:54:59;5.00;;;1.97;;
2998;SDS011;1509;51.964;7.628;2023-04-12T01:57:28;6.13;;;2.30;;
2998;SDS011;1509;51.964;7.628;2023-04-12T01:59:55;8.73;;;2.77;;
2998;SDS011;1509;51.964;7.628;2023-04-12T02:02:23;3.77;;;2.10;;
2998;SDS011;1509;51.964;7.628;2023-04-12T02:04:49;3.90;;;2.00;;
2998;SDS011;1509;51.964;7.628;2023-04-12T02:07:16;7.80;;;2.20;;
2998;SDS011;1509;51.964;7.628;2023-04-12T02:09:45;4.57;;;2.50;;
2998;SDS011;1509;51.964;7.628;2023-04-12T02:12:11;5.03;;;2.80;;
2998;SDS011;1509;51.964;7.628;2023-04-12T02:14:37;6.60;;;3.50;;
2998;SDS011;1509;51.964;7.628;2023-04-12T02:17:03;3.53;;;2.20;;
2998;SDS011;1509;51.964;7.628;2023-04-12T02:19:32;5.50;;;2.43;;
2998;SDS011;1509;51.964;7.628;2023-04-12T02:21:58;3.50;;;2.03;;
2998;SDS011;1509;51.964;7.628;2023-04-12T02:24:23;5.50;;;2.50;;
2998;SDS011;1509;51.964;7.628;2023-04-12T02:26:49;5.67;;;2.37;;
2998;SDS011;1509;51.964;7.628;2023-04-12T02:29:15;4.13;;;2.40;;
2998;SDS011;1509;51.964;7.628;2023-04-12T02:31:48;5.23;;;2.20;;
2998;SDS011;1509;51.964;7.628;2023-04-12T02:34:14;4.10;;;2.17;;
2998;SDS011;1509;51.964;7.628;2023-04-12T02:36:44;4.43;;;2.27;;
2998;SDS011;1509;51.964;7.628;2023-04-12T02:39:11;4.47;;;3.60;;
2998;SDS011;1509;51.964;7.628;2023-04-12T02:41:36;7.93;;;2.83;;
2998;SDS011;1509;51.964;7.628;2023-04-12T02:44:02;5.10;;;2.27;;
2998;SDS011;1509;51.964;7.628;2023-04-12T02:46:28;5.07;;;2.43;;
2998;SDS011;1509;51.964;7.628;2023-04-12T02:48:53;6.40;;;2.53;;
2998;SDS011;1509;51.964;7.628;2023-04-12T02:51:19;6.80;;;2.27;;
2998;SDS011;1509;51.964;7.628;2023-04-12T02:53:44;3.50;;;1.70;;
2998;SDS011;1509;51.964;7.628;2023-04-12T02:56:10;6.50;;;2.07;;
2998;SDS011;1509;51.964;7.628;2023-04-12T02:58:38;5.70;;;2.23;;
2998;SDS011;1509;51.964;7.628;2023-04-12T03:01:03;4.73;;;1.70;;
2998;SDS011;1509;51.964;7.628;2023-04-12T03:03:35;4.17;;;2.20;;
2998;SDS011;1509;51.964;7.628;2023-04-12T03:06:01;3.97;;;2.20;;
2998;SDS011;1509;51.964;7.628;2023-04-12T03:08:27;3.30;;;2.10;;
2998;SDS011;1509;51.964;7.628;2023-04-12T03:10:53;3.43;;;2.27;;
2998;SDS011;1509;51.964;7.628;2023-04-12T03:13:18;6.43;;;2.13;;
2998;SDS011;1509;51.964;7.628;2023-04-12T03:15:45;6.27;;;3.27;;
2998;SDS011;1509;51.964;7.628;2023-04-12T03:18:11;3.93;;;1.73;;
2998;SDS011;1509;51.964;7.628;2023-04-12T03:20:37;3.50;;;1.70;;
2998;SDS011;1509;51.964;7.628;2023-04-12T03:23:07;4.97;;;1.87;;
2998;SDS011;1509;51.964;7.628;2023-04-12T03:25:33;4.27;;;2.00;;
2998;SDS011;1509;51.964;7.628;2023-04-12T03:27:59;5.40;;;1.60;;
2998;SDS011;1509;51.964;7.628;2023-04-12T03:30:24;3.80;;;1.70;;
2998;SDS011;1509;51.964;7.628;2023-04-12T03:32:50;4.70;;;2.20;;
2998;SDS011;1509;51.964;7.628;2023-04-12T03:35:18;3.30;;;1.83;;
2998;SDS011;1509;51.964;7.628;2023-04-12T03:37:44;6.53;;;1.60;;
2998;SDS011;1509;51.964;7.628;2023-04-12T03:40:10;4.77;;;1.97;;
2998;SDS011;1509;51.964;7.628;2023-04-12T03:42:36;2.93;;;1.50;;
2998;SDS011;1509;51.964;7.628;2023-04-12T03:45:01;2.90;;;1.70;;
2998;SDS011;1509;51.964;7.628;2023-04-12T03:47:27;5.07;;;1.90;;
2998;SDS011;1509;51.964;7.628;2023-04-12T03:49:57;7.00;;;1.87;;
2998;SDS011;1509;51.964;7.628;2023-04-12T03:52:34;5.73;;;1.80;;
2998;SDS011;1509;51.964;7.628;2023-04-12T03:55:00;6.63;;;1.83;;
2998;SDS011;1509;51.964;7.628;2023-04-12T03:57:26;6.17;;;1.60;;
2998;SDS011;1509;51.964;7.628;2023-04-12T03:59:51;3.00;;;1.50;;
2998;SDS011;1509;51.964;7.628;2023-04-12T04:02:17;3.60;;;2.40;;
2998;SDS011;1509;51.964;7.628;2023-04-12T04:04:42;5.53;;;2.00;;
2998;SDS011;1509;51.964;7.628;2023-04-12T04:07:09;3.13;;;1.70;;
2998;SDS011;1509;51.964;7.628;2023-04-12T04:09:35;2.80;;;1.97;;
2998;SDS011;1509;51.964;7.628;2023-04-12T04:12:01;3.67;;;1.70;;
2998;SDS011;1509;51.964;7.628;2023-04-12T04:14:26;7.30;;;1.53;;
2998;SDS011;1509;51.964;7.628;2023-04-12T04:16:52;2.63;;;1.43;;
2998;SDS011;1509;51.964;7.628;2023-04-12T04:19:19;3.10;;;1.97;;
2998;SDS011;1509;51.964;7.628;2023-04-12T04:21:45;2.80;;;1.43;;
2998;SDS011;1509;51.964;7.628;2023-04-12T04:24:11;4.10;;;1.67;;
2998;SDS011;1509;51.964;7.628;2023-04-12T04:26:38;3.40;;;1.60;;
2998;SDS011;1509;51.964;7.628;2023-04-12T04:29:04;4.23;;;1.63;;
2998;SDS011;1509;51.964;7.628;2023-04-12T04:31:30;4.43;;;2.07;;
2998;SDS011;1509;51.964;7.628;2023-04-12T04:33:58;4.77;;;2.13;;
2998;SDS011;1509;51.964;7.628;2023-04-12T04:36:32;3.80;;;1.50;;
2998;SDS011;1509;51.964;7.628;2023-04-12T04:38:59;4.43;;;1.30;;
2998;SDS011;1509;51.964;7.628;2023-04-12T04:41:27;5.93;;;1.60;;
2998;SDS011;1509;51.964;7.628;2023-04-12T04:43:53;5.20;;;2.17;;
2998;SDS011;1509;51.964;7.628;2023-04-12T04:46:19;3.70;;;2.23;;
2998;SDS011;1509;51.964;7.628;2023-04-12T04:48:48;3.50;;;2.17;;
2998;SDS011;1509;51.964;7.628;2023-04-12T04:51:15;3.23;;;1.97;;
2998;SDS011;1509;51.964;7.628;2023-04-12T04:53:41;4.07;;;2.20;;
2998;SDS011;1509;51.964;7.628;2023-04-12T04:56:07;5.33;;;2.00;;
2998;SDS011;1509;51.964;7.628;2023-04-12T04:58:34;3.60;;;1.60;;
2998;SDS011;1509;51.964;7.628;2023-04-12T05:01:02;7.17;;;2.00;;
2998;SDS011;1509;51.964;7.628;2023-04-12T05:03:29;3.83;;;2.00;;
2998;SDS011;1509;51.964;7.628;2023-04-12T05:05:57;5.50;;;2.10;;
2998;SDS011;1509;51.964;7.628;2023-04-12T05:08:27;3.70;;;1.80;;
2998;SDS011;1509;51.964;7.628;2023-04-12T05:10:53;5.60;;;2.17;;
2998;SDS011;1509;51.964;7.628;2023-04-12T05:13:20;6.23;;;2.30;;
2998;SDS011;1509;51.964;7.628;2023-04-12T05:15:46;3.57;;;2.20;;
2998;SDS011;1509;51.964;7.628;2023-04-12T05:18:13;2.30;;;2.10;;
2998;SDS011;1509;51.964;7.628;2023-04-12T05:20:39;5.40;;;1.87;;
2998;SDS011;1509;51.964;7.628;2023-04-12T05:23:05;5.77;;;2.10;;
2998;SDS011;1509;51.964;7.628;2023-04-12T05:25:30;4.20;;;2.00;;
2998;SDS011;1509;51.964;7.628;2023-04-12T05:27:57;6.63;;;2.33;;
2998;SDS011;1509;51.964;7.628;2023-04-12T05:30:22;5.20;;;1.90;;
2998;SDS011;1509;51.964;7.628;2023-04-12T05:32:48;3.63;;;1.93;;
2998;SDS011;1509;51.964;7.628;2023-04-12T05:35:14;3.17;;;2.10;;
2998;SDS011;1509;51.964;7.628;2023-04-12T05:37:40;3.23;;;2.07;;
2998;SDS011;1509;51.964;7.628;2023-04-12T05:40:05;3.40;;;1.90;;
2998;SDS011;1509;51.964;7.628;2023-04-12T05:42:33;6.83;;;2.00;;
2998;SDS011;1509;51.964;7.628;2023-04-12T05:45:01;2.17;;;1.60;;
2998;SDS011;1509;51.964;7.628;2023-04-12T05:47:27;4.83;;;2.03;;
2998;SDS011;1509;51.964;7.628;2023-04-12T05:49:56;4.60;;;2.30;;
2998;SDS011;1509;51.964;7.628;2023-04-12T05:52:21;3.43;;;2.13;;
2998;SDS011;1509;51.964;7.628;2023-04-12T05:54:47;5.07;;;2.20;;
2998;SDS011;1509;51.964;7.628;2023-04-12T05:57:13;4.30;;;2.30;;
2998;SDS011;1509;51.964;7.628;2023-04-12T05:59:39;4.50;;;2.10;;
2998;SDS011;1509;51.964;7.628;2023-04-12T06:02:05;3.30;;;1.80;;
2998;SDS011;1509;51.964;7.628;2023-04-12T06:04:32;3.17;;;2.20;;
2998;SDS011;1509;51.964;7.628;2023-04-12T06:06:57;3.40;;;1.70;;
2998;SDS011;1509;51.964;7.628;2023-04-12T06:09:23;3.67;;;1.73;;
2998;SDS011;1509;51.964;7.628;2023-04-12T06:11:51;2.23;;;1.80;;
2998;SDS011;1509;51.964;7.628;2023-04-12T06:14:17;3.57;;;2.20;;
2998;SDS011;1509;51.964;7.628;2023-04-12T06:16:43;8.10;;;2.30;;
2998;SDS011;1509;51.964;7.628;2023-04-12T06:19:08;2.53;;;1.67;;
2998;SDS011;1509;51.964;7.628;2023-04-12T06:21:35;3.00;;;2.10;;
2998;SDS011;1509;51.964;7.628;2023-04-12T06:24:00;3.00;;;1.70;;
2998;SDS011;1509;51.964;7.628;2023-04-12T06:26:26;6.90;;;3.03;;
2998;SDS011;1509;51.964;7.628;2023-04-12T06:28:51;3.50;;;1.80;;
2998;SDS011;1509;51.964;7.628;2023-04-12T06:31:17;7.30;;;2.20;;
2998;SDS011;1509;51.964;7.628;2023-04-12T06:33:43;2.57;;;1.80;;
2998;SDS011;1509;51.964;7.628;2023-04-12T06:36:09;3.80;;;2.23;;
2998;SDS011;1509;51.964;7.628;2023-04-12T06:38:35;5.53;;;2.37;;
2998;SDS011;1509;51.964;7.628;2023-04-12T06:41:01;6.90;;;2.27;;
2998;SDS011;1509;51.964;7.628;2023-04-12T06:43:27;4.80;;;2.40;;
2998;SDS011;1509;51.964;7.628;2023-04-12T06:45:53;3.20;;;2.07;;
2998;SDS011;1509;51.964;7.628;2023-04-12T06:48:20;4.20;;;2.10;;
2998;SDS011;1509;51.964;7.628;2023-04-12T06:50:46;4.67;;;2.47;;
2998;SDS011;1509;51.964;7.628;2023-04-12T06:53:12;4.60;;;2.30;;
2998;SDS011;1509;51.964;7.628;2023-04-12T06:55:38;4.20;;;2.13;;
2998;SDS011;1509;51.964;7.628;2023-04-12T06:58:04;3.90;;;2.20;;
2998;SDS011;1509;51.964;7.628;2023-04-12T07:00:30;4.37;;;2.07;;
2998;SDS011;1509;51.964;7.628;2023-04-12T07:02:56;5.47;;;2.47;;
2998;SDS011;1509;51.964;7.628;2023-04-12T07:05:22;4.53;;;2.30;;
2998;SDS011;1509;51.964;7.628;2023-04-12T07:07:55;3.50;;;1.93;;
2998;SDS011;1509;51.964;7.628;2023-04-12T07:10:56;4.13;;;2.20;;
2998;SDS011;1509;51.964;7.628;2023-04-12T07:13:22;3.53;;;2.00;;
2998;SDS011;1509;51.964;7.628;2023-04-12T07:15:47;3.33;;;2.10;;
2998;SDS011;1509;51.964;7.628;2023-04-12T07:18:14;3.93;;;2.10;;
2998;SDS011;1509;51.964;7.628;2023-04-12T07:20:40;15.77;;;5.10;;
2998;SDS011;1509;51.964;7.628;2023-04-12T07:26:48;5.13;;;2.37;;
2998;SDS011;1509;51.964;7.628;2023-04-12T07:29:14;4.43;;;2.00;;
2998;SDS011;1509;51.964;7.628;2023-04-12T07:31:41;2.80;;;2.00;;
2998;SDS011;1509;51.964;7.628;2023-04-12T07:34:07;6.00;;;2.03;;
2998;SDS011;1509;51.964;7.628;2023-04-12T07:36:32;3.27;;;1.70;;
2998;SDS011;1509;51.964;7.628;2023-04-12T07:38:58;4.10;;;1.80;;
2998;SDS011;1509;51.964;7.628;2023-04-12T07:41:24;2.57;;;1.60;;
2998;SDS011;1509;51.964;7.628;2023-04-12T07:43:52;2.73;;;1.90;;
2998;SDS011;1509;51.964;7.628;2023-04-12T07:46:21;4.70;;;2.10;;
2998;SDS011;1509;51.964;7.628;2023-04-12T07:48:47;3.07;;;2.00;;
2998;SDS011;1509;51.964;7.628;2023-04-12T07:51:15;3.00;;;1.60;;
2998;SDS011;1509;51.964;7.628;2023-04-12T07:53:56;3.40;;;1.60;;
2998;SDS011;1509;51.964;7.628;2023-04-12T07:59:43;2.90;;;1.67;;
2998;SDS011;1509;51.964;7.628;2023-04-12T08:02:11;1.93;;;1.53;;
2998;SDS011;1509;51.964;7.628;2023-04-12T08:04:37;3.33;;;1.87;;
2998;SDS011;1509;51.964;7.628;2023-04-12T08:07:08;3.60;;;1.70;;
2998;SDS011;1509;51.964;7.628;2023-04-12T08:09:34;3.70;;;3.40;;
2998;SDS011;1509;51.964;7.628;2023-04-12T08:12:00;4.57;;;1.80;;
2998;SDS011;1509;51.964;7.628;2023-04-12T08:14:26;2.20;;;1.90;;
2998;SDS011;1509;51.964;7.628;2023-04-12T08:17:02;2.60;;;1.70;;
2998;SDS011;1509;51.964;7.628;2023-04-12T08:19:27;3.40;;;1.60;;
2998;SDS011;1509;51.964;7.628;2023-04-12T08:21:56;3.73;;;1.97;;
2998;SDS011;1509;51.964;7.628;2023-04-12T08:24:28;5.57;;;2.37;;
2998;SDS011;1509;51.964;7.628;2023-04-12T08:29:53;2.30;;;2.10;;
2998;SDS011;1509;51.964;7.628;2023-04-12T08:32:22;2.27;;;1.57;;
2998;SDS011;1509;51.964;7.628;2023-04-12T08:34:48;2.23;;;1.40;;
2998;SDS011;1509;51.964;7.628;2023-04-12T08:37:16;2.07;;;1.63;;
2998;SDS011;1509;51.964;7.628;2023-04-12T08:39:42;2.83;;;1.77;;
2998;SDS011;1509;51.964;7.628;2023-04-12T08:42:35;2.90;;;1.40;;
2998;SDS011;1509;51.964;7.628;2023-04-12T08:45:10;2.40;;;1.50;;
2998;SDS011;1509;51.964;7.628;2023-04-12T08:47:40;3.43;;;1.67;;
2998;SDS011;1509;51.964;7.628;2023-04-12T08:50:08;3.70;;;1.87;;
2998;SDS011;1509;51.964;7.628;2023-04-12T08:52:37;5.97;;;2.60;;
2998;SDS011;1509;51.964;7.628;2023-04-12T08:55:05;6.40;;;1.90;;
2998;SDS011;1509;51.964;7.628;2023-04-12T08:57:34;2.17;;;1.80;;
2998;SDS011;1509;51.964;7.628;2023-04-12T09:00:01;2.23;;;1.67;;
2998;SDS011;1509;51.964;7.628;2023-04-12T09:02:28;4.10;;;1.80;;
2998;SDS011;1509;51.964;7.628;2023-04-12T09:04:54;2.03;;;1.60;;
2998;SDS011;1509;51.964;7.628;2023-04-12T09:07:23;2.97;;;2.03;;
2998;SDS011;1509;51.964;7.628;2023-04-12T09:10:02;2.20;;;1.77;;
2998;SDS011;1509;51.964;7.628;2023-04-12T09:12:28;3.83;;;2.20;;
2998;SDS011;1509;51.964;7.628;2023-04-12T09:15:27;4.13;;;2.23;;
2998;SDS011;1509;51.964;7.628;2023-04-12T09:17:46;4.17;;;2.17;;
2998;SDS011;1509;51.964;7.628;2023-04-12T09:22:41;2.70;;;1.80;;
2998;SDS011;1509;51.964;7.628;2023-04-12T09:25:11;3.97;;;1.90;;
2998;SDS011;1509;51.964;7.628;2023-04-12T09:27:44;4.70;;;2.07;;
2998;SDS011;1509;51.964;7.628;2023-04-12T09:30:17;3.03;;;1.80;;
2998;SDS011;1509;51.964;7.628;2023-04-12T09:32:44;3.17;;;2.00;;
2998;SDS011;1509;51.964;7.628;2023-04-12T09:35:13;2.70;;;1.80;;
2998;SDS011;1509;51.964;7.628;2023-04-12T09:37:41;3.37;;;1.90;;
2998;SDS011;1509;51.964;7.628;2023-04-12T09:40:07;2.70;;;1.67;;
2998;SDS011;1509;51.964;7.628;2023-04-12T09:42:34;2.50;;;1.40;;
2998;SDS011;1509;51.964;7.628;2023-04-12T09:45:22;2.10;;;1.90;;
2998;SDS011;1509;51.964;7.628;2023-04-12T09:47:49;3.60;;;2.10;;
2998;SDS011;1509;51.964;7.628;2023-04-12T09:50:25;4.00;;;1.87;;
2998;SDS011;1509;51.964;7.628;2023-04-12T09:52:53;3.73;;;1.90;;
2998;SDS011;1509;51.964;7.628;2023-04-12T09:55:20;5.03;;;2.27;;
2998;SDS011;1509;51.964;7.628;2023-04-12T09:57:54;3.13;;;2.03;;
2998;SDS011;1509;51.964;7.628;2023-04-12T10:00:23;2.87;;;1.90;;
2998;SDS011;1509;51.964;7.628;2023-04-12T10:02:51;2.40;;;1.80;;
2998;SDS011;1509;51.964;7.628;2023-04-12T10:05:18;4.10;;;1.93;;
2998;SDS011;1509;51.964;7.628;2023-04-12T10:07:46;3.93;;;3.50;;
2998;SDS011;1509;51.964;7.628;2023-04-12T10:10:12;2.70;;;1.90;;
2998;SDS011;1509;51.964;7.628;2023-04-12T10:12:40;3.43;;;1.97;;
2998;SDS011;1509;51.964;7.628;2023-04-12T10:15:07;2.73;;;2.07;;
2998;SDS011;1509;51.964;7.628;2023-04-12T10:17:40;2.70;;;2.47;;
2998;SDS011;1509;51.964;7.628;2023-04-12T10:20:14;2.10;;;1.67;;
2998;SDS011;1509;51.964;7.628;2023-04-12T10:22:41;3.50;;;2.23;;
2998;SDS011;1509;51.964;7.628;2023-04-12T10:25:15;3.80;;;2.30;;
2998;SDS011;1509;51.964;7.628;2023-04-12T10:27:43;3.90;;;3.33;;
2998;SDS011;1509;51.964;7.628;2023-04-12T10:30:20;5.13;;;4.27;;
2998;SDS011;1509;51.964;7.628;2023-04-12T10:32:57;4.70;;;2.57;;
2998;SDS011;1509;51.964;7.628;2023-04-12T10:38:24;3.23;;;2.23;;
2998;SDS011;1509;51.964;7.628;2023-04-12T10:41:08;5.00;;;3.80;;
2998;SDS011;1509;51.964;7.628;2023-04-12T10:49:06;3.83;;;3.10;;
2998;SDS011;1509;51.964;7.628;2023-04-12T10:51:34;5.23;;;4.10;;
2998;SDS011;1509;51.964;7.628;2023-04-12T10:56:41;6.03;;;4.07;;
2998;SDS011;1509;51.964;7.628;2023-04-12T10:59:08;4.23;;;3.47;;
2998;SDS011;1509;51.964;7.628;2023-04-12T11:01:35;4.13;;;3.67;;
2998;SDS011;1509;51.964;7.628;2023-04-12T11:06:39;5.43;;;4.73;;
2998;SDS011;1509;51.964;7.628;2023-04-12T11:09:06;5.10;;;3.90;;
2998;SDS011;1509;51.964;7.628;2023-04-12T11:11:40;5.70;;;4.20;;
2998;SDS011;1509;51.964;7.628;2023-04-12T11:14:08;5.40;;;3.93;;
2998;SDS011;1509;51.964;7.628;2023-04-12T11:19:40;7.30;;;3.83;;
2998;SDS011;1509;51.964;7.628;2023-04-12T11:22:11;5.60;;;3.80;;
2998;SDS011;1509;51.964;7.628;2023-04-12T11:24:47;4.97;;;4.40;;
2998;SDS011;1509;51.964;7.628;2023-04-12T11:27:15;7.67;;;4.80;;
2998;SDS011;1509;51.964;7.628;2023-04-12T11:29:43;4.90;;;4.00;;
2998;SDS011;1509;51.964;7.628;2023-04-12T11:32:09;6.63;;;4.60;;
2998;SDS011;1509;51.964;7.628;2023-04-12T11:34:40;7.33;;;5.17;;
2998;SDS011;1509;51.964;7.628;2023-04-12T11:37:07;8.10;;;5.97;;
2998;SDS011;1509;51.964;7.628;2023-04-12T11:39:35;8.30;;;6.10;;
2998;SDS011;1509;51.964;7.628;2023-04-12T11:42:03;7.50;;;6.00;;
2998;SDS011;1509;51.964;7.628;2023-04-12T11:44:31;7.87;;;6.03;;
2998;SDS011;1509;51.964;7.628;2023-04-12T11:46:57;9.87;;;6.67;;
2998;SDS011;1509;51.964;7.628;2023-04-12T11:49:25;9.93;;;6.97;;
2998;SDS011;1509;51.964;7.628;2023-04-12T11:52:00;9.57;;;6.87;;
2998;SDS011;1509;51.964;7.628;2023-04-12T11:54:27;8.67;;;7.00;;
2998;SDS011;1509;51.964;7.628;2023-04-12T11:56:55;10.43;;;7.57;;
2998;SDS011;1509;51.964;7.628;2023-04-12T11:59:22;9.07;;;6.33;;
2998;SDS011;1509;51.964;7.628;2023-04-12T12:01:55;6.90;;;5.57;;
2998;SDS011;1509;51.964;7.628;2023-04-12T12:04:20;8.00;;;6.20;;
2998;SDS011;1509;51.964;7.628;2023-04-12T12:06:49;12.60;;;7.00;;
2998;SDS011;1509;51.964;7.628;2023-04-12T12:09:15;9.27;;;6.30;;
2998;SDS011;1509;51.964;7.628;2023-04-12T12:11:41;7.77;;;5.83;;
2998;SDS011;1509;51.964;7.628;2023-04-12T12:14:07;6.17;;;4.53;;
2998;SDS011;1509;51.964;7.628;2023-04-12T12:16:33;3.83;;;2.60;;
2998;SDS011;1509;51.964;7.628;2023-04-12T12:19:02;3.10;;;2.20;;
2998;SDS011;1509;51.964;7.628;2023-04-12T12:21:29;2.63;;;1.87;;
2998;SDS011;1509;51.964;7.628;2023-04-12T12:23:55;2.90;;;1.90;;
2998;SDS011;1509;51.964;7.628;2023-04-12T12:26:25;3.03;;;2.00;;
2998;SDS011;1509;51.964;7.628;2023-04-12T12:28:55;3.03;;;2.17;;
2998;SDS011;1509;51.964;7.628;2023-04-12T12:31:22;3.10;;;2.10;;
2998;SDS011;1509;51.964;7.628;2023-04-12T12:33:54;2.67;;;2.17;;
2998;SDS011;1509;51.964;7.628;2023-04-12T12:36:29;2.80;;;2.33;;
2998;SDS011;1509;51.964;7.628;2023-04-12T12:39:01;3.60;;;2.37;;
2998;SDS011;1509;51.964;7.628;2023-04-12T12:41:36;2.00;;;1.67;;
2998;SDS011;1509;51.964;7.628;2023-04-12T12:44:03;2.13;;;1.30;;
2998;SDS011;1509;51.964;7.628;2023-04-12T12:46:29;4.87;;;1.80;;
2998;SDS011;1509;51.964;7.628;2023-04-12T12:48:55;1.67;;;1.33;;
2998;SDS011;1509;51.964;7.628;2023-04-12T12:51:20;2.67;;;1.53;;
2998;SDS011;1509;51.964;7.628;2023-04-12T12:53:46;2.73;;;1.83;;
2998;SDS011;1509;51.964;7.628;2023-04-12T12:56:12;1.73;;;1.20;;
2998;SDS011;1509;51.964;7.628;2023-04-12T12:58:39;1.80;;;1.33;;
2998;SDS011;1509;51.964;7.628;2023-04-12T13:01:06;1.80;;;1.20;;
2998;SDS011;1509;51.964;7.628;2023-04-12T13:03:32;2.63;;;1.10;;
2998;SDS011;1509;51.964;7.628;2023-04-12T13:05:58;2.10;;;0.93;;
2998;SDS011;1509;51.964;7.628;2023-04-12T13:08:24;1.70;;;1.00;;
2998;SDS011;1509;51.964;7.628;2023-04-12T13:10:51;2.37;;;0.90;;
2998;SDS011;1509;51.964;7.628;2023-04-12T13:13:17;1.40;;;1.10;;
2998;SDS011;1509;51.964;7.628;2023-04-12T13:15:43;2.20;;;1.17;;
2998;SDS011;1509;51.964;7.628;2023-04-12T13:18:12;1.83;;;1.23;;
2998;SDS011;1509;51.964;7.628;2023-04-12T13:20:41;1.77;;;1.20;;
2998;SDS011;1509;51.964;7.628;2023-04-12T13:23:07;2.30;;;1.23;;
2998;SDS011;1509;51.964;7.628;2023-04-12T13:25:36;4.77;;;1.20;;
2998;SDS011;1509;51.964;7.628;2023-04-12T13:28:04;4.50;;;1.30;;
2998;SDS011;1509;51.964;7.628;2023-04-12T13:30:33;3.40;;;1.70;;
2998;SDS011;1509;51.964;7.628;2023-04-12T13:32:58;2.50;;;1.50;;
2998;SDS011;1509;51.964;7.628;2023-04-12T13:35:24;2.10;;;1.40;;
2998;SDS011;1509;51.964;7.628;2023-04-12T13:37:50;2.70;;;1.30;;
2998;SDS011;1509;51.964;7.628;2023-04-12T13:40:16;2.83;;;1.60;;
2998;SDS011;1509;51.964;7.628;2023-04-12T13:42:41;5.20;;;1.43;;
2998;SDS011;1509;51.964;7.628;2023-04-12T13:45:07;5.97;;;1.60;;
2998;SDS011;1509;51.964;7.628;2023-04-12T13:47:35;4.63;;;1.70;;
2998;SDS011;1509;51.964;7.628;2023-04-12T13:50:00;6.20;;;1.87;;
2998;SDS011;1509;51.964;7.628;2023-04-12T13:52:26;3.97;;;1.70;;
2998;SDS011;1509;51.964;7.628;2023-04-12T13:54:55;3.23;;;1.20;;
2998;SDS011;1509;51.964;7.628;2023-04-12T13:57:21;2.27;;;1.20;;
2998;SDS011;1509;51.964;7.628;2023-04-12T13:59:47;5.23;;;1.60;;
2998;SDS011;1509;51.964;7.628;2023-04-12T14:02:15;4.70;;;1.73;;
2998;SDS011;1509;51.964;7.628;2023-04-12T14:04:50;4.77;;;1.40;;
2998;SDS011;1509;51.964;7.628;2023-04-12T14:07:17;2.87;;;1.27;;
2998;SDS011;1509;51.964;7.628;2023-04-12T14:09:43;5.90;;;1.83;;
2998;SDS011;1509;51.964;7.628;2023-04-12T14:12:08;3.80;;;1.27;;
2998;SDS011;1509;51.964;7.628;2023-04-12T14:14:34;5.83;;;2.27;;
2998;SDS011;1509;51.964;7.628;2023-04-12T14:17:00;4.87;;;1.80;;
2998;SDS011;1509;51.964;7.628;2023-04-12T14:19:26;2.93;;;1.33;;
2998;SDS011;1509;51.964;7.628;2023-04-12T14:21:51;3.60;;;1.53;;
2998;SDS011;1509;51.964;7.628;2023-04-12T14:24:18;6.20;;;1.90;;
2998;SDS011;1509;51.964;7.628;2023-04-12T14:26:44;4.13;;;1.80;;
2998;SDS011;1509;51.964;7.628;2023-04-12T14:29:11;3.63;;;1.43;;
2998;SDS011;1509;51.964;7.628;2023-04-12T14:31:37;6.63;;;1.40;;
2998;SDS011;1509;51.964;7.628;2023-04-12T14:34:03;3.10;;;2.20;;
2998;SDS011;1509;51.964;7.628;2023-04-12T14:36:30;6.00;;;1.90;;
2998;SDS011;1509;51.964;7.628;2023-04-12T14:38:57;6.70;;;2.03;;
2998;SDS011;1509;51.964;7.628;2023-04-12T14:41:23;3.73;;;2.13;;
2998;SDS011;1509;51.964;7.628;2023-04-12T14:43:48;5.27;;;2.03;;
2998;SDS011;1509;51.964;7.628;2023-04-12T14:46:15;5.53;;;2.20;;
2998;SDS011;1509;51.964;7.628;2023-04-12T14:48:41;4.07;;;1.90;;
2998;SDS011;1509;51.964;7.628;2023-04-12T14:51:08;6.73;;;3.20;;
2998;SDS011;1509;51.964;7.628;2023-04-12T14:53:34;7.70;;;3.03;;
2998;SDS011;1509;51.964;7.628;2023-04-12T14:56:00;8.10;;;3.03;;
2998;SDS011;1509;51.964;7.628;2023-04-12T14:58:26;2.47;;;1.60;;
2998;SDS011;1509;51.964;7.628;2023-04-12T15:00:54;5.97;;;2.77;;
2998;SDS011;1509;51.964;7.628;2023-04-12T15:03:20;4.43;;;2.90;;
2998;SDS011;1509;51.964;7.628;2023-04-12T15:05:46;6.37;;;2.90;;
2998;SDS011;1509;51.964;7.628;2023-04-12T15:08:14;4.20;;;3.17;;
2998;SDS011;1509;51.964;7.628;2023-04-12T15:10:40;6.00;;;3.70;;
2998;SDS011;1509;51.964;7.628;2023-04-12T15:13:08;8.17;;;3.00;;
2998;SDS011;1509;51.964;7.628;2023-04-12T15:15:35;11.20;;;3.13;;
2998;SDS011;1509;51.964;7.628;2023-04-12T15:18:00;10.17;;;3.17;;
2998;SDS011;1509;51.964;7.628;2023-04-12T15:20:29;6.33;;;3.07;;
2998;SDS011;1509;51.964;7.628;2023-04-12T15:22:55;5.13;;;2.97;;
2998;SDS011;1509;51.964;7.628;2023-04-12T15:25:21;7.13;;;3.50;;
2998;SDS011;1509;51.964;7.628;2023-04-12T15:27:47;11.60;;;5.77;;
2998;SDS011;1509;51.964;7.628;2023-04-12T15:30:13;9.50;;;4.10;;
2998;SDS011;1509;51.964;7.628;2023-04-12T15:32:39;4.90;;;2.87;;
2998;SDS011;1509;51.964;7.628;2023-04-12T15:35:05;10.53;;;3.90;;
2998;SDS011;1509;51.964;7.628;2023-04-12T15:37:32;9.63;;;3.97;;
2998;SDS011;1509;51.964;7.628;2023-04-12T15:40:03;4.97;;;2.53;;
2998;SDS011;1509;51.964;7.628;2023-04-12T15:42:40;9.60;;;3.30;;
2998;SDS011;1509;51.964;7.628;2023-04-12T15:45:07;6.10;;;2.53;;
2998;SDS011;1509;51.964;7.628;2023-04-12T15:47:34;7.03;;;3.10;;
2998;SDS011;1509;51.964;7.628;2023-04-12T15:50:01;9.63;;;3.70;;
2998;SDS011;1509;51.964;7.628;2023-04-12T15:52:27;5.40;;;3.17;;
2998;SDS011;1509;51.964;7.628;2023-04-12T15:54:53;8.87;;;3.37;;
2998;SDS011;1509;51.964;7.628;2023-04-12T15:57:19;7.10;;;3.10;;
2998;SDS011;1509;51.964;7.628;2023-04-12T15:59:45;5.40;;;3.10;;